Skip Navigation Links
NOAA logo - Click to go to the NOAA homepage
NOAA's National Weather Service
Alaska Aviation Weather Unit
  NWS logo - Click to go to the NWS homepage
Left Navbar Graphic     12 AKDT = 20 GMT

   
NOAA is celebrating 200 years of science, service, and stewardship. Visit the NOAA 200th celebration Web site to learn more.
USA.gov is the U.S. Government's official Web portal to all Federal, state and local government Web resources and services.
Facebook
NWS on Facebook

Important Change Regarding the AAWU Web Presence

 

Over the last several months, the AAWU has been working to navigate its webpages to a nationally supported server. Security, as well as other needs, have necessitated the change.  We have been given an extension for the site changeover while we diligently work at addressing feedback received. As of July 14, 2017, aawu.arh.noaa.gov will be discontinued. The new AAWU web address is weather.gov/aawu. It is now live and will run in-parallel with the old site until it is discontinued on July 14, 2017. Please continue to send any feedback or questions regarding the new webpages to nws.ar.aawu.webauthors@noaa.gov.  Thank you for your patience during this time of transition.
AAWU Home :: Display TAF Add Bookmark
PAKU 251445Z 31002KT 1/2SM R24/1200V2800FT FG VV003 03/03
     A2997=

SPECI PAKU 251520Z VRB02KT 4SM R06/P6000FT BR BKN003 BKN140 03/03 A2998
     RMK VIS 2V6=

METAR PAKU 251545Z VRB02KT 5SM R06/P6000FT BR BKN004 BKN140 04/04
     A2998=

METAR PAKU 251645Z VRB02KT 7SM R06/P6000FT BKN007 BKN130 04/04 A2998=

METAR PAKU 251745Z VRB03KT 10SM R06/P6000FT SCT007 BKN015 05/04
     A2998=

PAKU 251845Z VRB03KT 10SM R06/P6000FT SCT010 BKN015 BKN130 06/05
     A2998 RMK `=

METAR PAKU 251945Z 03004KT 10SM R06/P6000FT BKN014 BKN130 07/05
     A2998=


NOAA's National Weather Service
Alaska Aviation Weather Unit
6930 Sand Lake Road
Anchorage, AK 99502-1845
Disclaimer
Credits
Glossary
Privacy Policy
About Us
Career Opportunities
Contact AAWU Internet Services Site last modified: April, 17th 2012